aviador You're here:

KCOU Decoded Metar

COLUMBIA in MO, USA
Report Time2017-07-22 23:54:00
UTC Time2017-07-23 00:52:26
Flight Rules vfr VFR
Wind260° at 08 kt
W.Decomp.*RWY 31: 4.8 kt HW 6.4 kt LCW
RWY 20: 4.4 kt HW 6.7 kt RCW
W.Rank260° ranks 26
Current wind is below 260° avg. (8.2)
Visibility9999 m
Phenomena:N/A
Clouds:N/A
Expected CloudBase > 4,800 ft AGL from Temp-Dew spread
CeilingNone
Temp36°C (ISA +23)
Dew Point24°C (50% RH)
Heat Index43.1°C
QNH1008 hPa
Density Alt4,026 ft
Elevation889 ft
Report Wrong Elevation
Raw Report
KCOU 222354Z 26008KT 10SM CLR 36/24 A2978 RMK AO2 SLP073 T03560239
10394 20356 58007=

Extra information for KCOU:More info

Metar Taf Metar & Taf Last 4 Metars F.Rules Stats Wind Profile Meteogram Temp Stats Airport Information Weather charts Add Link Nearby VenuesMetar ALERT Operation Metar Decoded Social comments

AIRNAV info for KCOU